createdAt,value
2022-10-06T00:01:10.671Z,11.22
2022-10-06T00:03:39.777Z,11.38
2022-10-06T00:06:08.633Z,11.39
2022-10-06T00:08:38.407Z,11.34
2022-10-06T00:11:08.275Z,11.47
2022-10-06T00:13:36.438Z,11.06
2022-10-06T00:16:10.855Z,11.22
2022-10-06T00:18:39.077Z,11.41
2022-10-06T00:21:06.845Z,11.34
2022-10-06T00:23:35.646Z,11.27
2022-10-06T00:26:04.056Z,11.22
2022-10-06T00:28:32.421Z,11.34
2022-10-06T00:31:03.666Z,10.60
2022-10-06T00:33:31.805Z,11.31
2022-10-06T00:36:01.126Z,11.30
2022-10-06T00:38:29.467Z,11.19
2022-10-06T00:40:57.925Z,11.36
2022-10-06T00:43:54.749Z,11.25
2022-10-06T00:46:38.055Z,11.27
2022-10-06T00:49:12.008Z,10.69
2022-10-06T00:51:45.248Z,11.16
2022-10-06T00:54:13.257Z,11.00
2022-10-06T00:56:41.636Z,11.04
2022-10-06T00:59:14.415Z,10.88
2022-10-06T01:01:48.825Z,10.28
2022-10-06T01:04:18.045Z,10.58
2022-10-06T01:06:52.345Z,10.81
2022-10-06T01:09:21.116Z,10.94
2022-10-06T01:11:51.456Z,11.07
2022-10-06T01:14:19.955Z,10.92
2022-10-06T01:16:52.174Z,10.89
2022-10-06T01:19:47.526Z,10.70
2022-10-06T01:22:17.496Z,10.45
2022-10-06T01:24:46.875Z,10.56
2022-10-06T01:27:15.679Z,10.43
2022-10-06T01:29:43.686Z,10.43
2022-10-06T01:32:12.012Z,10.12
2022-10-06T01:34:39.746Z,10.08
2022-10-06T01:37:07.517Z,9.35
2022-10-06T01:39:36.237Z,10.05
2022-10-06T01:42:04.175Z,10.05
2022-10-06T01:44:32.746Z,10.11
2022-10-06T01:47:00.775Z,10.14
2022-10-06T01:49:28.588Z,9.94
2022-10-06T01:51:56.366Z,10.03
2022-10-06T01:54:24.566Z,9.98
2022-10-06T01:56:52.400Z,9.85
2022-10-06T01:59:20.367Z,9.04
2022-10-06T02:01:48.685Z,9.29
2022-10-06T02:04:17.261Z,9.26
2022-10-06T02:06:45.163Z,9.74
2022-10-06T02:09:13.005Z,9.52
2022-10-06T02:11:41.342Z,9.66
2022-10-06T02:14:09.086Z,9.68
2022-10-06T02:16:36.924Z,9.63
2022-10-06T02:19:05.237Z,9.61
2022-10-06T02:21:33.474Z,9.73
2022-10-06T02:24:01.381Z,9.59
2022-10-06T02:26:29.226Z,9.59
2022-10-06T02:28:57.480Z,9.52
2022-10-06T02:31:25.553Z,9.34
2022-10-06T02:33:53.466Z,9.57
2022-10-06T02:36:22.749Z,9.42
2022-10-06T02:38:50.721Z,9.36
2022-10-06T02:41:18.974Z,9.35
2022-10-06T02:43:47.817Z,9.37
2022-10-06T02:46:15.851Z,9.38
2022-10-06T02:48:45.186Z,9.33
2022-10-06T02:51:16.110Z,9.37
2022-10-06T02:53:45.868Z,9.25
2022-10-06T02:56:24.416Z,9.21
2022-10-06T02:58:53.305Z,9.32
2022-10-06T03:01:26.926Z,9.12
2022-10-06T03:03:55.367Z,8.76
2022-10-06T03:06:25.948Z,8.87
2022-10-06T03:09:07.828Z,8.87
2022-10-06T03:11:41.805Z,8.83
2022-10-06T03:14:10.146Z,9.03
2022-10-06T03:16:40.685Z,8.59
2022-10-06T03:19:10.565Z,8.59
2022-10-06T03:21:41.850Z,9.03
2022-10-06T03:24:10.696Z,9.21
2022-10-06T03:26:45.109Z,9.16
2022-10-06T03:29:14.277Z,9.06
2022-10-06T03:31:43.592Z,9.06
2022-10-06T03:34:15.699Z,8.37
2022-10-06T03:36:44.821Z,8.60
2022-10-06T03:39:12.656Z,8.85
2022-10-06T03:41:40.627Z,9.03
2022-10-06T03:44:09.297Z,9.08
2022-10-06T03:46:37.841Z,9.15
2022-10-06T03:49:05.761Z,9.00
2022-10-06T03:51:39.445Z,8.91
2022-10-06T03:54:10.956Z,8.76
2022-10-06T03:56:41.338Z,8.42
2022-10-06T03:59:12.234Z,8.31
2022-10-06T04:01:45.732Z,8.51
2022-10-06T04:04:14.518Z,8.99
2022-10-06T04:06:44.277Z,8.96
2022-10-06T04:09:15.622Z,9.05
2022-10-06T04:11:45.151Z,8.94
2022-10-06T04:14:15.560Z,8.86
2022-10-06T04:16:46.243Z,8.77
2022-10-06T04:19:16.236Z,8.77
2022-10-06T04:21:46.338Z,8.53
2022-10-06T04:24:17.317Z,8.80
2022-10-06T04:26:46.808Z,8.91
2022-10-06T04:29:15.286Z,9.03
2022-10-06T04:31:44.792Z,8.79
2022-10-06T04:34:13.848Z,8.95
2022-10-06T04:36:42.766Z,9.11
2022-10-06T04:39:12.510Z,8.99
2022-10-06T04:41:41.857Z,8.74
2022-10-06T04:44:10.589Z,8.73
2022-10-06T04:46:44.080Z,9.04
2022-10-06T04:49:19.479Z,8.69
2022-10-06T04:51:51.297Z,8.72
2022-10-06T04:54:19.743Z,8.29
2022-10-06T04:56:47.816Z,8.83
2022-10-06T04:59:16.241Z,9.08
2022-10-06T05:01:45.617Z,9.23
2022-10-06T05:04:13.752Z,9.13
2022-10-06T05:06:42.616Z,9.09
2022-10-06T05:09:13.651Z,9.17
2022-10-06T05:11:41.855Z,8.85
2022-10-06T05:14:10.778Z,8.71
2022-10-06T05:16:38.836Z,8.79
2022-10-06T05:19:08.401Z,9.01
2022-10-06T05:21:37.894Z,9.01
2022-10-06T05:24:07.226Z,9.30
2022-10-06T05:26:36.447Z,9.45
2022-10-06T05:29:05.175Z,9.61
2022-10-06T05:31:38.976Z,9.53
2022-10-06T05:34:07.701Z,9.69
2022-10-06T05:36:36.081Z,10.03
2022-10-06T05:39:05.257Z,10.10
2022-10-06T05:41:35.047Z,9.90
2022-10-06T05:44:03.966Z,10.30
2022-10-06T05:46:33.237Z,10.18
2022-10-06T05:49:04.890Z,10.33
2022-10-06T05:51:34.697Z,10.46
2022-10-06T05:54:03.368Z,10.28
2022-10-06T05:56:33.084Z,10.09
2022-10-06T05:59:02.659Z,10.55
2022-10-06T06:01:35.828Z,9.84
2022-10-06T06:04:07.847Z,9.46
2022-10-06T06:06:39.009Z,10.05
2022-10-06T06:09:19.648Z,9.84
2022-10-06T06:11:50.257Z,10.06
2022-10-06T06:14:40.558Z,10.80
2022-10-06T06:17:08.638Z,10.94
2022-10-06T06:19:36.688Z,12.03
2022-10-06T06:22:04.627Z,11.52
2022-10-06T06:24:32.829Z,11.16
2022-10-06T06:27:00.930Z,11.02
2022-10-06T06:29:29.087Z,11.08
2022-10-06T06:31:56.986Z,11.11
2022-10-06T06:34:25.759Z,11.29
2022-10-06T06:36:55.379Z,11.71
2022-10-06T06:39:23.197Z,11.86
2022-10-06T06:41:51.597Z,12.37
2022-10-06T06:44:20.627Z,12.13
2022-10-06T06:46:49.936Z,12.40
2022-10-06T06:49:20.238Z,13.14
2022-10-06T06:51:52.814Z,13.16
2022-10-06T06:54:21.159Z,13.45
2022-10-06T06:56:49.979Z,13.76
2022-10-06T06:59:18.523Z,13.91
2022-10-06T07:01:48.321Z,14.02
2022-10-06T07:04:17.918Z,13.97
2022-10-06T07:07:13.011Z,13.70
2022-10-06T07:09:42.028Z,14.54
2022-10-06T07:12:11.698Z,14.07
2022-10-06T07:14:59.726Z,14.72
2022-10-06T07:17:47.407Z,15.07
2022-10-06T07:20:34.149Z,15.24
2022-10-06T07:23:20.783Z,16.60
2022-10-06T07:25:48.768Z,16.51
2022-10-06T07:28:17.396Z,16.99
2022-10-06T07:30:45.520Z,17.16
2022-10-06T07:33:14.808Z,17.45
2022-10-06T07:35:43.250Z,17.19
2022-10-06T07:38:11.228Z,17.84
2022-10-06T07:40:46.329Z,17.54
2022-10-06T07:43:24.370Z,18.35
2022-10-06T07:45:52.297Z,18.26
2022-10-06T07:48:22.513Z,19.04
2022-10-06T07:50:53.337Z,18.59
2022-10-06T07:53:21.990Z,18.90
2022-10-06T07:55:50.768Z,19.07
2022-10-06T07:58:20.704Z,19.62
2022-10-06T08:00:49.144Z,19.82
2022-10-06T08:03:18.441Z,20.26
2022-10-06T08:05:48.722Z,20.23
2022-10-06T08:08:17.194Z,20.86
2022-10-06T08:10:55.468Z,20.49
2022-10-06T08:13:24.277Z,20.93
2022-10-06T08:15:52.655Z,21.35
2022-10-06T08:18:44.313Z,21.62
2022-10-06T08:21:15.251Z,21.78
2022-10-06T08:23:44.379Z,22.14
2022-10-06T08:28:44.879Z,22.10
2022-10-06T08:31:15.903Z,22.69
2022-10-06T08:33:44.809Z,23.06
2022-10-06T08:36:17.465Z,23.20
2022-10-06T08:38:52.135Z,23.30
2022-10-06T08:41:24.258Z,23.92
2022-10-06T08:43:56.654Z,24.18
2022-10-06T08:46:26.698Z,24.14
2022-10-06T08:48:54.909Z,24.09
2022-10-06T08:51:25.425Z,24.53
2022-10-06T08:54:08.599Z,24.58
2022-10-06T08:56:48.731Z,24.87
2022-10-06T08:59:16.635Z,25.29
2022-10-06T09:01:49.923Z,25.49
2022-10-06T09:04:28.870Z,25.67
2022-10-06T09:07:00.516Z,26.09
2022-10-06T09:09:41.057Z,26.56
2022-10-06T09:12:31.669Z,27.02
2022-10-06T09:15:12.394Z,26.98
2022-10-06T09:18:10.963Z,27.78
2022-10-06T09:20:44.120Z,27.90
2022-10-06T09:23:17.740Z,27.38
2022-10-06T09:25:45.558Z,28.49
2022-10-06T09:28:16.015Z,28.82
2022-10-06T09:30:44.052Z,28.17
2022-10-06T09:33:21.229Z,28.34
2022-10-06T09:36:12.691Z,28.14
2022-10-06T09:38:57.853Z,27.52
2022-10-06T09:41:32.458Z,27.46
2022-10-06T09:44:24.957Z,27.78
2022-10-06T09:46:53.428Z,27.89
2022-10-06T09:49:26.167Z,27.40
2022-10-06T09:52:15.286Z,27.52
2022-10-06T09:54:44.109Z,28.21
2022-10-06T09:57:18.517Z,27.50
2022-10-06T09:59:48.693Z,27.61
2022-10-06T10:02:37.723Z,27.19
2022-10-06T10:05:18.006Z,26.74
2022-10-06T10:07:48.368Z,26.05
2022-10-06T10:10:19.866Z,26.28
2022-10-06T10:12:55.007Z,26.42
2022-10-06T10:15:23.238Z,26.76
2022-10-06T10:18:13.075Z,27.24
2022-10-06T10:20:51.124Z,27.12
2022-10-06T10:23:31.107Z,26.64
2022-10-06T10:26:15.596Z,26.44
2022-10-06T10:29:15.267Z,26.73
2022-10-06T10:32:06.451Z,26.86
2022-10-06T10:34:38.395Z,26.64
2022-10-06T10:37:19.037Z,25.66
2022-10-06T10:40:25.577Z,25.72
2022-10-06T10:43:01.319Z,25.79
2022-10-06T10:45:34.340Z,26.20
2022-10-06T10:48:07.616Z,25.47
2022-10-06T10:50:43.258Z,24.98
2022-10-06T10:53:20.941Z,25.21
2022-10-06T10:55:49.217Z,24.99
2022-10-06T10:58:17.267Z,24.98
2022-10-06T11:00:47.638Z,25.82
2022-10-06T11:03:15.527Z,25.81
2022-10-06T11:05:50.975Z,25.99
2022-10-06T11:08:19.554Z,26.66
2022-10-06T11:10:51.307Z,27.10
2022-10-06T11:13:27.537Z,27.38
2022-10-06T11:16:17.345Z,28.12
2022-10-06T11:19:15.059Z,28.72
2022-10-06T11:21:47.460Z,29.38
2022-10-06T11:24:43.614Z,29.04
2022-10-06T11:27:31.059Z,29.36
2022-10-06T11:30:12.295Z,29.08
2022-10-06T11:33:08.446Z,29.20
2022-10-06T11:35:39.657Z,28.76
2022-10-06T11:38:41.265Z,28.63
2022-10-06T11:41:38.925Z,28.14
2022-10-06T11:44:18.067Z,27.77
2022-10-06T11:46:53.617Z,26.62
2022-10-06T11:49:31.824Z,27.05
2022-10-06T11:52:09.006Z,26.55
2022-10-06T11:54:46.809Z,26.86
2022-10-06T11:57:29.448Z,26.21
2022-10-06T12:00:05.049Z,26.73
2022-10-06T12:02:34.905Z,26.80
2022-10-06T12:05:54.206Z,26.84
2022-10-06T12:08:03.059Z,26.48
2022-10-06T12:10:32.625Z,25.95
2022-10-06T12:13:51.026Z,26.64
2022-10-06T12:19:17.000Z,26.99
2022-10-06T12:22:01.378Z,26.21
2022-10-06T12:24:39.300Z,26.15
2022-10-06T12:27:29.191Z,25.80
2022-10-06T12:30:14.851Z,26.09
2022-10-06T12:32:56.039Z,26.13
2022-10-06T12:35:32.810Z,25.81
2022-10-06T12:38:05.151Z,25.72
2022-10-06T12:40:46.922Z,25.94
2022-10-06T12:43:15.240Z,26.13
2022-10-06T12:46:12.506Z,26.14
2022-10-06T12:49:04.576Z,25.92
2022-10-06T12:51:35.349Z,25.99
2022-10-06T12:54:21.767Z,26.03
2022-10-06T12:56:58.991Z,26.41
2022-10-06T12:59:29.847Z,25.29
2022-10-06T13:02:20.883Z,25.90
2022-10-06T13:04:58.243Z,26.22
2022-10-06T13:07:29.107Z,25.58
2022-10-06T13:10:15.783Z,25.64
2022-10-06T13:12:50.444Z,25.99
2022-10-06T13:18:16.917Z,26.15
2022-10-06T13:20:56.237Z,26.10
2022-10-06T13:23:24.046Z,26.28
2022-10-06T13:25:58.052Z,26.34
2022-10-06T13:28:44.017Z,26.17
2022-10-06T13:31:31.597Z,26.14
2022-10-06T13:34:03.466Z,26.16
2022-10-06T13:36:34.257Z,25.90
2022-10-06T13:39:14.117Z,26.00
2022-10-06T13:41:54.547Z,26.09
2022-10-06T13:44:30.277Z,25.61
2022-10-06T13:47:05.249Z,25.65
2022-10-06T13:49:49.999Z,26.02
2022-10-06T13:52:20.829Z,26.01
2022-10-06T13:54:57.509Z,25.74
2022-10-06T13:58:10.547Z,25.38
2022-10-06T14:00:51.575Z,25.80
2022-10-06T14:03:37.793Z,25.29
2022-10-06T14:06:19.717Z,25.26
2022-10-06T14:08:56.390Z,25.11
2022-10-06T14:11:26.727Z,24.62
2022-10-06T14:14:00.298Z,24.31
2022-10-06T14:16:28.609Z,24.19
2022-10-06T14:19:05.156Z,24.39
2022-10-06T14:21:37.021Z,23.73
2022-10-06T14:24:19.587Z,23.79
2022-10-06T14:26:50.050Z,23.98
2022-10-06T14:29:19.326Z,23.21
2022-10-06T14:31:47.616Z,23.45
2022-10-06T14:34:17.878Z,23.38
2022-10-06T14:36:48.856Z,23.09
2022-10-06T14:39:16.799Z,23.20
2022-10-06T14:41:45.658Z,22.53
2022-10-06T14:44:15.810Z,22.86
2022-10-06T14:46:47.635Z,22.87
2022-10-06T14:49:16.509Z,22.72
2022-10-06T14:51:46.168Z,22.45
2022-10-06T14:54:14.278Z,22.29
2022-10-06T14:56:42.696Z,22.18
2022-10-06T14:59:14.687Z,22.38
2022-10-06T15:04:16.149Z,21.92
2022-10-06T15:07:03.116Z,21.77
2022-10-06T15:09:31.457Z,21.67
2022-10-06T15:12:00.530Z,21.63
2022-10-06T15:14:29.832Z,21.69
2022-10-06T15:17:00.997Z,21.61
2022-10-06T15:19:29.218Z,21.51
2022-10-06T15:21:57.121Z,21.35
2022-10-06T15:24:25.030Z,21.17
2022-10-06T15:27:11.916Z,21.00
2022-10-06T15:29:40.021Z,21.09
2022-10-06T15:32:09.678Z,21.02
2022-10-06T15:34:38.018Z,20.93
2022-10-06T15:37:06.189Z,20.75
2022-10-06T15:39:38.006Z,20.56
2022-10-06T15:42:06.777Z,20.57
2022-10-06T15:44:35.537Z,20.57
2022-10-06T15:47:05.719Z,20.43
2022-10-06T15:49:38.345Z,20.18
2022-10-06T15:52:07.363Z,20.30
2022-10-06T15:54:38.053Z,20.15
2022-10-06T15:57:09.143Z,20.65
2022-10-06T15:59:37.617Z,20.04
2022-10-06T16:02:08.812Z,20.12
2022-10-06T16:04:40.445Z,20.07
2022-10-06T16:07:13.300Z,20.03
2022-10-06T16:09:49.208Z,19.45
2022-10-06T16:12:19.412Z,19.13
2022-10-06T16:14:47.718Z,19.00
2022-10-06T16:17:15.917Z,18.79
2022-10-06T16:19:44.150Z,19.16
2022-10-06T16:22:18.406Z,18.55
2022-10-06T16:24:46.359Z,19.08
2022-10-06T16:27:15.562Z,19.05
2022-10-06T16:29:43.497Z,19.40
2022-10-06T16:32:11.360Z,18.84
2022-10-06T16:34:39.709Z,19.07
2022-10-06T16:37:07.713Z,18.19
2022-10-06T16:39:35.757Z,17.72
2022-10-06T16:42:04.171Z,17.78
2022-10-06T16:44:32.018Z,17.78
2022-10-06T16:47:01.087Z,17.50
2022-10-06T16:49:29.684Z,17.58
2022-10-06T16:51:57.575Z,17.56
2022-10-06T16:54:25.970Z,17.75
2022-10-06T16:56:55.399Z,17.94
2022-10-06T16:59:24.047Z,18.03
2022-10-06T17:01:52.310Z,18.16
2022-10-06T17:04:24.960Z,18.37
2022-10-06T17:06:57.587Z,17.68
2022-10-06T17:09:27.631Z,17.37
2022-10-06T17:11:58.519Z,17.22
2022-10-06T17:14:27.557Z,17.10
2022-10-06T17:16:58.790Z,17.37
2022-10-06T17:19:29.167Z,17.21
2022-10-06T17:21:59.446Z,17.37
2022-10-06T17:24:30.020Z,17.19
2022-10-06T17:26:58.510Z,17.69
2022-10-06T17:29:26.778Z,17.83
2022-10-06T17:31:59.469Z,17.48
2022-10-06T17:34:32.891Z,17.47
2022-10-06T17:37:04.233Z,17.87
2022-10-06T17:39:32.250Z,17.44
2022-10-06T17:42:00.247Z,16.92
2022-10-06T17:44:32.793Z,16.44
2022-10-06T17:47:02.675Z,17.13
2022-10-06T17:49:34.944Z,16.97
2022-10-06T17:52:02.768Z,17.21
2022-10-06T17:54:33.718Z,17.26
2022-10-06T17:57:01.822Z,17.05
2022-10-06T17:59:31.898Z,16.47
2022-10-06T18:02:04.904Z,16.73
2022-10-06T18:04:35.869Z,16.59
2022-10-06T18:07:04.063Z,16.30
2022-10-06T18:09:32.283Z,16.15
2022-10-06T18:12:02.187Z,15.84
2022-10-06T18:14:33.448Z,16.25
2022-10-06T18:17:02.733Z,16.47
2022-10-06T18:19:32.746Z,16.41
2022-10-06T18:22:03.230Z,16.40
2022-10-06T18:24:32.080Z,15.82
2022-10-06T18:27:01.429Z,15.41
2022-10-06T18:29:32.709Z,15.27
2022-10-06T18:37:40.662Z,15.91
2022-10-06T18:40:11.449Z,14.91
2022-10-06T18:42:39.678Z,15.58
2022-10-06T18:45:27.737Z,15.50
2022-10-06T18:48:14.219Z,15.16
2022-10-06T18:50:42.927Z,15.41
2022-10-06T18:53:10.829Z,15.35
2022-10-06T18:55:38.676Z,15.34
2022-10-06T18:58:07.227Z,15.17
2022-10-06T19:00:35.897Z,14.92
2022-10-06T19:03:03.937Z,15.25
2022-10-06T19:05:32.775Z,14.73
2022-10-06T19:08:00.678Z,15.31
2022-10-06T19:10:29.913Z,15.39
2022-10-06T19:12:58.516Z,14.81
2022-10-06T19:15:26.538Z,14.88
2022-10-06T19:17:54.287Z,15.25
2022-10-06T19:20:23.543Z,15.28
2022-10-06T19:22:51.767Z,15.19
2022-10-06T19:25:19.867Z,15.20
2022-10-06T19:27:48.856Z,15.20
2022-10-06T19:30:16.658Z,15.15
2022-10-06T19:32:45.297Z,15.12
2022-10-06T19:35:13.497Z,14.74
2022-10-06T19:37:41.586Z,14.44
2022-10-06T19:40:11.492Z,15.07
2022-10-06T19:42:49.316Z,15.29
2022-10-06T19:45:17.926Z,15.21
2022-10-06T19:47:47.623Z,15.25
2022-10-06T19:50:19.099Z,15.14
2022-10-06T19:52:55.972Z,15.08
2022-10-06T19:55:30.196Z,15.08
2022-10-06T19:58:00.621Z,15.15
2022-10-06T20:00:32.136Z,15.00
2022-10-06T20:03:00.950Z,14.64
2022-10-06T20:05:30.412Z,14.44
2022-10-06T20:07:59.887Z,14.85
2022-10-06T20:10:28.766Z,15.00
2022-10-06T20:12:56.752Z,15.13
2022-10-06T20:15:24.466Z,14.94
2022-10-06T20:17:52.546Z,14.75
2022-10-06T20:20:20.677Z,14.25
2022-10-06T20:22:49.978Z,14.09
2022-10-06T20:25:18.141Z,14.82
2022-10-06T20:27:46.207Z,14.91
2022-10-06T20:30:14.416Z,14.69
2022-10-06T20:32:42.546Z,14.74
2022-10-06T20:35:10.447Z,14.32
2022-10-06T20:37:41.979Z,14.39
2022-10-06T20:40:29.446Z,14.49
2022-10-06T20:42:59.569Z,14.25
2022-10-06T20:45:27.637Z,13.41
2022-10-06T20:47:55.687Z,14.28
2022-10-06T20:50:23.366Z,13.71
2022-10-06T20:52:51.447Z,14.33
2022-10-06T20:55:19.346Z,14.49
2022-10-06T20:57:48.701Z,13.98
2022-10-06T21:00:18.301Z,14.14
2022-10-06T21:02:46.100Z,14.47
2022-10-06T21:05:14.122Z,14.27
2022-10-06T21:07:42.727Z,14.31
2022-10-06T21:10:11.212Z,14.11
2022-10-06T21:12:39.093Z,14.16
2022-10-06T21:15:07.883Z,13.58
2022-10-06T21:17:35.774Z,14.12
2022-10-06T21:20:03.671Z,14.28
2022-10-06T21:22:31.805Z,14.14
2022-10-06T21:24:59.666Z,14.04
2022-10-06T21:27:27.562Z,14.13
2022-10-06T21:29:56.074Z,14.12
2022-10-06T21:32:23.863Z,13.95
2022-10-06T21:34:56.125Z,13.83
2022-10-06T21:37:24.281Z,13.83
2022-10-06T21:39:52.081Z,14.12
2022-10-06T21:42:19.893Z,14.14
2022-10-06T21:44:47.953Z,13.52
2022-10-06T21:47:15.936Z,13.70
2022-10-06T21:49:43.823Z,13.84
2022-10-06T21:52:11.905Z,14.08
2022-10-06T21:54:39.703Z,14.15
2022-10-06T21:57:08.322Z,13.54
2022-10-06T21:59:36.435Z,13.72
2022-10-06T22:02:04.270Z,13.41
2022-10-06T22:04:32.451Z,13.80
2022-10-06T22:07:00.212Z,13.56
2022-10-06T22:09:28.131Z,13.25
2022-10-06T22:11:56.332Z,13.98
2022-10-06T22:14:24.122Z,13.26
2022-10-06T22:16:52.003Z,13.25
2022-10-06T22:19:20.172Z,13.18
2022-10-06T22:21:48.889Z,13.82
2022-10-06T22:24:21.094Z,13.97
2022-10-06T22:26:49.836Z,14.02
2022-10-06T22:29:19.047Z,13.63
2022-10-06T22:31:48.263Z,13.22
2022-10-06T22:34:20.592Z,13.73
2022-10-06T22:36:48.610Z,13.44
2022-10-06T22:39:16.925Z,13.53
2022-10-06T22:41:45.594Z,13.41
2022-10-06T22:44:13.556Z,13.58
2022-10-06T22:46:41.786Z,13.62
2022-10-06T22:49:09.661Z,13.62
2022-10-06T22:51:37.430Z,13.50
2022-10-06T22:54:05.641Z,13.42
2022-10-06T22:56:34.734Z,13.51
2022-10-06T22:59:02.613Z,12.93
2022-10-06T23:01:30.893Z,12.62
2022-10-06T23:03:58.755Z,13.14
2022-10-06T23:06:26.971Z,13.46
2022-10-06T23:08:55.171Z,12.93
2022-10-06T23:11:23.171Z,12.81
2022-10-06T23:13:53.123Z,12.82
2022-10-06T23:16:21.731Z,12.63
2022-10-06T23:18:49.677Z,13.04
2022-10-06T23:21:22.116Z,13.29
2022-10-06T23:23:52.503Z,12.98
2022-10-06T23:26:21.475Z,12.88
2022-10-06T23:28:54.531Z,12.84
2022-10-06T23:31:23.483Z,12.92
2022-10-06T23:33:51.528Z,12.84
2022-10-06T23:36:19.435Z,13.21
2022-10-06T23:38:47.912Z,13.25
2022-10-06T23:41:16.316Z,12.91
2022-10-06T23:43:44.311Z,13.36
2022-10-06T23:46:12.899Z,13.37
2022-10-06T23:48:40.805Z,13.45
2022-10-06T23:51:10.971Z,13.44
2022-10-06T23:53:39.272Z,13.10
2022-10-06T23:56:07.620Z,13.14
2022-10-06T23:58:35.411Z,13.33
